createdAt,value
2019-02-02T00:01:01.867Z,74.41
2019-02-02T00:03:34.606Z,74.43
2019-02-02T00:06:06.254Z,74.47
2019-02-02T00:08:37.768Z,74.36
2019-02-02T00:11:09.280Z,74.39
2019-02-02T00:13:40.789Z,74.10
2019-02-02T00:16:12.644Z,74.05
2019-02-02T00:18:44.178Z,74.26
2019-02-02T00:21:15.776Z,74.24
2019-02-02T00:23:47.225Z,74.26
2019-02-02T00:26:18.951Z,74.24
2019-02-02T00:28:50.459Z,74.26
2019-02-02T00:31:22.248Z,74.28
2019-02-02T00:33:53.725Z,74.60
2019-02-02T00:36:25.225Z,74.42
2019-02-02T00:38:56.860Z,74.21
2019-02-02T00:41:28.555Z,74.16
2019-02-02T00:43:59.993Z,74.09
2019-02-02T00:46:31.837Z,74.08
2019-02-02T00:49:03.636Z,74.07
2019-02-02T00:51:35.160Z,74.11
2019-02-02T00:54:06.730Z,73.90
2019-02-02T00:56:38.219Z,73.76
2019-02-02T00:59:09.716Z,73.97
2019-02-02T01:01:41.413Z,73.86
2019-02-02T01:04:12.984Z,73.67
2019-02-02T01:06:44.413Z,73.67
2019-02-02T01:09:26.708Z,73.25
2019-02-02T01:11:58.339Z,73.12
2019-02-02T01:14:29.807Z,73.19
2019-02-02T01:17:01.553Z,73.15
2019-02-02T01:19:33.331Z,73.28
2019-02-02T01:22:04.797Z,73.07
2019-02-02T01:24:36.247Z,72.89
2019-02-02T01:27:07.696Z,72.90
2019-02-02T01:29:39.132Z,73.11
2019-02-02T01:32:13.809Z,73.00
2019-02-02T01:34:44.148Z,72.84
2019-02-02T01:37:15.571Z,72.83
2019-02-02T01:39:47.060Z,72.87
2019-02-02T01:42:18.867Z,72.73
2019-02-02T01:44:50.353Z,72.73
2019-02-02T01:47:22.207Z,72.45
2019-02-02T01:49:53.725Z,72.13
2019-02-02T01:52:25.170Z,72.08
2019-02-02T01:54:56.718Z,72.11
2019-02-02T01:57:28.164Z,72.17
2019-02-02T01:59:59.997Z,72.16
2019-02-02T02:02:31.686Z,71.79
2019-02-02T02:05:03.171Z,71.94
2019-02-02T02:07:34.669Z,72.04
2019-02-02T02:10:07.305Z,71.92
2019-02-02T02:12:38.727Z,71.71
2019-02-02T02:15:12.244Z,71.62
2019-02-02T02:17:43.709Z,71.62
2019-02-02T02:20:16.446Z,71.86
2019-02-02T02:22:48.534Z,71.38
2019-02-02T02:25:20.801Z,71.35
2019-02-02T02:27:52.252Z,71.43
2019-02-02T02:30:24.498Z,71.06
2019-02-02T02:32:56.550Z,71.29
2019-02-02T02:35:28.151Z,71.31
2019-02-02T02:37:59.564Z,70.80
2019-02-02T02:40:31.128Z,70.88
2019-02-02T02:43:02.911Z,70.85
2019-02-02T02:45:34.494Z,70.84
2019-02-02T02:48:06.353Z,70.56
2019-02-02T02:50:37.847Z,70.56
2019-02-02T02:53:09.284Z,70.58
2019-02-02T02:55:40.799Z,70.62
2019-02-02T02:58:12.227Z,70.39
2019-02-02T03:00:43.669Z,70.53
2019-02-02T03:03:15.405Z,70.65
2019-02-02T03:05:46.934Z,70.11
2019-02-02T03:08:18.373Z,70.26
2019-02-02T03:10:49.818Z,70.24
2019-02-02T03:13:21.346Z,69.97
2019-02-02T03:15:52.844Z,70.00
2019-02-02T03:18:24.651Z,69.78
2019-02-02T03:20:56.061Z,70.17
2019-02-02T03:23:27.565Z,70.11
2019-02-02T03:25:58.992Z,69.90
2019-02-02T03:28:30.456Z,69.81
2019-02-02T03:31:01.887Z,69.80
2019-02-02T03:33:33.397Z,69.97
2019-02-02T03:36:04.821Z,69.87
2019-02-02T03:38:36.279Z,69.96
2019-02-02T03:41:07.730Z,69.44
2019-02-02T03:43:39.489Z,69.68
2019-02-02T03:46:10.943Z,69.28
2019-02-02T03:48:42.435Z,69.11
2019-02-02T03:51:13.857Z,69.17
2019-02-02T03:53:45.338Z,69.16
2019-02-02T03:56:16.817Z,69.19
2019-02-02T03:58:48.288Z,69.09
2019-02-02T04:01:19.772Z,68.99
2019-02-02T04:03:52.776Z,68.98
2019-02-02T04:06:24.192Z,68.79
2019-02-02T04:08:55.615Z,68.82
2019-02-02T04:11:27.096Z,68.82
2019-02-02T04:13:58.582Z,68.82
2019-02-02T04:16:30.037Z,68.63
2019-02-02T04:19:01.866Z,68.66
2019-02-02T04:21:36.421Z,68.48
2019-02-02T04:24:07.861Z,68.03
2019-02-02T04:26:39.322Z,68.25
2019-02-02T04:29:17.596Z,68.26
2019-02-02T04:31:43.966Z,68.24
2019-02-02T04:34:15.880Z,67.97
2019-02-02T04:36:47.331Z,67.86
2019-02-02T04:39:18.950Z,67.53
2019-02-02T04:41:50.436Z,67.58
2019-02-02T04:44:22.122Z,67.51
2019-02-02T04:46:53.561Z,67.47
2019-02-02T04:49:25.293Z,67.29
2019-02-02T04:51:56.727Z,67.20
2019-02-02T04:54:29.561Z,67.34
2019-02-02T04:57:00.967Z,67.16
2019-02-02T04:59:32.437Z,67.20
2019-02-02T05:02:03.925Z,67.25
2019-02-02T05:04:35.703Z,67.15
2019-02-02T05:07:07.157Z,67.02
2019-02-02T05:09:38.638Z,67.04
2019-02-02T05:12:10.090Z,66.79
2019-02-02T05:14:41.578Z,66.79
2019-02-02T05:17:13.039Z,66.72
2019-02-02T05:19:44.684Z,66.55
2019-02-02T05:22:16.172Z,66.61
2019-02-02T05:24:47.656Z,66.44
2019-02-02T05:27:19.109Z,66.58
2019-02-02T05:29:50.553Z,66.64
2019-02-02T05:32:22.020Z,66.45
2019-02-02T05:34:53.682Z,66.60
2019-02-02T05:37:25.196Z,66.66
2019-02-02T05:39:56.649Z,66.51
2019-02-02T05:42:28.096Z,66.58
2019-02-02T05:44:59.761Z,66.47
2019-02-02T05:47:31.284Z,66.23
2019-02-02T05:50:02.991Z,66.14
2019-02-02T05:52:34.465Z,66.37
2019-02-02T05:55:07.496Z,66.39
2019-02-02T05:57:38.935Z,66.43
2019-02-02T06:00:17.766Z,66.15
2019-02-02T06:02:49.191Z,66.13
2019-02-02T06:05:20.637Z,65.91
2019-02-02T06:07:52.127Z,65.92
2019-02-02T06:10:23.564Z,65.70
2019-02-02T06:12:55.039Z,65.80
2019-02-02T06:15:28.787Z,65.84
2019-02-02T06:17:59.613Z,65.80
2019-02-02T06:20:31.394Z,65.81
2019-02-02T06:23:02.827Z,65.91
2019-02-02T06:25:34.264Z,65.69
2019-02-02T06:28:05.796Z,65.72
2019-02-02T06:30:37.262Z,65.51
2019-02-02T06:33:08.766Z,65.32
2019-02-02T06:35:40.470Z,65.50
2019-02-02T06:38:11.925Z,65.63
2019-02-02T06:40:43.450Z,65.32
2019-02-02T06:43:14.926Z,65.33
2019-02-02T06:45:46.632Z,65.36
2019-02-02T06:48:18.094Z,65.27
2019-02-02T06:50:49.829Z,65.19
2019-02-02T06:53:21.583Z,65.03
2019-02-02T06:55:53.196Z,65.17
2019-02-02T06:58:24.682Z,65.28
2019-02-02T07:00:56.130Z,65.17
2019-02-02T07:03:27.582Z,65.00
2019-02-02T07:05:59.180Z,65.15
2019-02-02T07:08:30.654Z,65.04
2019-02-02T07:11:02.357Z,64.91
2019-02-02T07:13:36.046Z,64.88
2019-02-02T07:16:06.963Z,64.72
2019-02-02T07:18:38.453Z,64.83
2019-02-02T07:21:10.304Z,64.75
2019-02-02T07:23:41.765Z,64.84
2019-02-02T07:26:13.350Z,64.70
2019-02-02T07:28:44.890Z,64.67
2019-02-02T07:31:16.348Z,64.65
2019-02-02T07:33:47.840Z,64.78
2019-02-02T07:36:19.278Z,64.58
2019-02-02T07:38:50.787Z,64.77
2019-02-02T07:41:22.211Z,64.78
2019-02-02T07:43:53.700Z,64.60
2019-02-02T07:46:25.233Z,64.51
2019-02-02T07:48:56.687Z,64.46
2019-02-02T07:51:28.615Z,64.31
2019-02-02T07:54:00.072Z,64.36
2019-02-02T07:56:31.533Z,64.37
2019-02-02T07:59:03.083Z,64.37
2019-02-02T08:01:34.671Z,64.21
2019-02-02T08:04:06.385Z,64.18
2019-02-02T08:06:38.410Z,64.07
2019-02-02T08:09:11.343Z,64.18
2019-02-02T08:11:42.877Z,64.02
2019-02-02T08:14:14.359Z,63.95
2019-02-02T08:16:45.830Z,63.67
2019-02-02T08:19:17.274Z,63.62
2019-02-02T08:21:49.043Z,63.76
2019-02-02T08:24:21.608Z,63.75
2019-02-02T08:26:53.052Z,63.69
2019-02-02T08:29:24.591Z,63.75
2019-02-02T08:31:56.146Z,63.48
2019-02-02T08:34:27.647Z,63.28
2019-02-02T08:36:59.376Z,63.23
2019-02-02T08:39:30.875Z,63.16
2019-02-02T08:42:02.395Z,63.41
2019-02-02T08:44:33.958Z,62.81
2019-02-02T08:47:05.724Z,62.71
2019-02-02T08:49:40.216Z,62.51
2019-02-02T08:52:10.736Z,62.54
2019-02-02T08:54:42.347Z,62.60
2019-02-02T08:57:14.084Z,62.62
2019-02-02T08:59:45.609Z,62.76
2019-02-02T09:02:17.116Z,62.74
2019-02-02T09:04:48.748Z,62.79
2019-02-02T09:07:20.765Z,62.81
2019-02-02T09:09:52.301Z,62.71
2019-02-02T09:12:23.757Z,62.62
2019-02-02T09:14:55.280Z,62.55
2019-02-02T09:17:26.777Z,62.67
2019-02-02T09:19:58.346Z,62.79
2019-02-02T09:22:31.198Z,62.64
2019-02-02T09:25:02.657Z,62.62
2019-02-02T09:27:34.450Z,62.66
2019-02-02T09:30:11.491Z,62.45
2019-02-02T09:32:43.796Z,62.37
2019-02-02T09:35:15.274Z,62.56
2019-02-02T09:37:46.740Z,62.22
2019-02-02T09:40:19.485Z,62.34
2019-02-02T09:42:50.969Z,62.33
2019-02-02T09:45:22.435Z,62.17
2019-02-02T09:47:54.012Z,62.60
2019-02-02T09:50:25.982Z,62.50
2019-02-02T09:52:57.616Z,62.66
2019-02-02T09:55:29.485Z,62.46
2019-02-02T09:58:08.502Z,62.24
2019-02-02T10:00:38.686Z,62.29
2019-02-02T10:03:10.251Z,62.01
2019-02-02T10:05:41.713Z,61.92
2019-02-02T10:08:13.214Z,62.10
2019-02-02T10:10:44.681Z,62.01
2019-02-02T10:13:16.196Z,61.94
2019-02-02T10:15:47.715Z,62.08
2019-02-02T10:18:19.190Z,62.08
2019-02-02T10:20:50.792Z,61.90
2019-02-02T10:23:22.602Z,61.80
2019-02-02T10:25:54.312Z,61.84
2019-02-02T10:28:25.966Z,61.76
2019-02-02T10:30:57.802Z,61.66
2019-02-02T10:33:29.338Z,61.70
2019-02-02T10:36:00.827Z,61.69
2019-02-02T10:38:32.364Z,61.55
2019-02-02T10:41:03.885Z,61.38
2019-02-02T10:43:35.379Z,61.50
2019-02-02T10:46:06.964Z,61.25
2019-02-02T10:48:38.642Z,61.04
2019-02-02T10:51:10.255Z,61.05
2019-02-02T10:53:42.073Z,60.82
2019-02-02T10:56:13.724Z,60.78
2019-02-02T10:58:45.279Z,60.53
2019-02-02T11:01:16.867Z,60.34
2019-02-02T11:03:48.458Z,60.36
2019-02-02T11:06:20.131Z,60.12
2019-02-02T11:08:52.055Z,60.10
2019-02-02T11:11:23.841Z,60.50
2019-02-02T11:13:55.686Z,60.55
2019-02-02T11:16:27.322Z,60.37
2019-02-02T11:18:58.814Z,60.34
2019-02-02T11:21:30.504Z,59.54
2019-02-02T11:24:02.695Z,59.12
2019-02-02T11:26:34.808Z,58.63
2019-02-02T11:29:06.457Z,58.53
2019-02-02T11:31:37.997Z,58.60
2019-02-02T11:34:09.564Z,58.29
2019-02-02T11:36:43.777Z,58.12
2019-02-02T11:39:14.542Z,57.58
2019-02-02T11:41:46.064Z,57.67
2019-02-02T11:44:20.016Z,57.08
2019-02-02T11:46:51.125Z,56.77
2019-02-02T11:49:23.980Z,56.47
2019-02-02T11:51:55.927Z,56.31
2019-02-02T11:54:27.946Z,56.39
2019-02-02T11:56:59.687Z,55.99
2019-02-02T11:59:31.288Z,55.82
2019-02-02T12:02:14.004Z,55.61
2019-02-02T12:04:36.478Z,55.25
2019-02-02T12:07:08.083Z,54.84
2019-02-02T12:09:40.125Z,54.46
2019-02-02T12:12:11.762Z,54.67
2019-02-02T12:14:43.552Z,54.39
2019-02-02T12:17:15.077Z,54.08
2019-02-02T12:19:46.729Z,54.26
2019-02-02T12:22:18.553Z,54.35
2019-02-02T12:24:50.201Z,54.08
2019-02-02T12:27:21.715Z,53.74
2019-02-02T12:29:53.219Z,53.89
2019-02-02T12:32:29.134Z,53.97
2019-02-02T12:35:04.469Z,54.17
2019-02-02T12:37:33.997Z,54.30
2019-02-02T12:40:07.313Z,54.12
2019-02-02T12:42:38.846Z,54.05
2019-02-02T12:45:18.827Z,54.55
2019-02-02T12:47:50.280Z,54.09
2019-02-02T12:50:22.181Z,54.13
2019-02-02T12:52:53.646Z,54.11
2019-02-02T12:55:26.030Z,54.06
2019-02-02T12:57:58.292Z,54.27
2019-02-02T13:00:29.980Z,54.23
2019-02-02T13:03:01.496Z,54.20
2019-02-02T13:05:35.373Z,54.12
2019-02-02T13:08:06.804Z,54.24
2019-02-02T13:10:38.288Z,53.82
2019-02-02T13:13:09.966Z,53.42
2019-02-02T13:15:41.741Z,53.20
2019-02-02T13:18:13.477Z,52.51
2019-02-02T13:20:44.984Z,52.20
2019-02-02T13:23:16.432Z,51.70
2019-02-02T13:25:48.091Z,51.02
2019-02-02T13:28:19.867Z,50.99
2019-02-02T13:30:51.457Z,48.89
2019-02-02T13:33:23.110Z,48.72
2019-02-02T13:35:54.616Z,49.49
2019-02-02T13:38:26.348Z,50.35
2019-02-02T13:40:58.007Z,51.40
2019-02-02T13:43:29.561Z,52.38
2019-02-02T13:46:01.130Z,52.95
2019-02-02T13:48:32.634Z,53.34
2019-02-02T13:51:06.170Z,54.06
2019-02-02T13:53:37.871Z,53.89
2019-02-02T13:56:09.734Z,54.16
2019-02-02T13:58:41.283Z,54.28
2019-02-02T14:01:12.786Z,54.28
2019-02-02T14:03:46.610Z,54.69
2019-02-02T14:06:18.131Z,54.89
2019-02-02T14:08:49.673Z,55.20
2019-02-02T14:11:21.178Z,54.91
2019-02-02T14:13:52.735Z,55.16
2019-02-02T14:16:24.252Z,55.13
2019-02-02T14:18:55.878Z,55.62
2019-02-02T14:21:28.595Z,55.83
2019-02-02T14:24:00.261Z,55.74
2019-02-02T14:26:32.233Z,56.02
2019-02-02T14:29:03.732Z,56.07
2019-02-02T14:31:35.546Z,56.37
2019-02-02T14:34:07.142Z,56.55
2019-02-02T14:36:39.894Z,56.61
2019-02-02T14:39:12.286Z,56.91
2019-02-02T14:41:44.303Z,57.08
2019-02-02T14:44:16.145Z,57.54
2019-02-02T14:46:47.880Z,57.47
2019-02-02T14:49:19.462Z,57.31
2019-02-02T14:51:51.547Z,57.67
2019-02-02T14:54:23.094Z,57.65
2019-02-02T14:56:55.003Z,57.86
2019-02-02T14:59:29.811Z,57.72
2019-02-02T15:02:02.589Z,57.63
2019-02-02T15:04:34.766Z,57.98
2019-02-02T15:07:06.383Z,57.92
2019-02-02T15:09:38.138Z,57.83
2019-02-02T15:12:09.878Z,57.73
2019-02-02T15:14:42.014Z,57.88
2019-02-02T15:17:14.187Z,57.83
2019-02-02T15:19:46.113Z,57.82
2019-02-02T15:22:17.916Z,57.85
2019-02-02T15:24:49.814Z,57.70
2019-02-02T15:27:21.532Z,57.70
2019-02-02T15:29:54.617Z,57.83
2019-02-02T15:32:28.262Z,57.49
2019-02-02T15:35:00.415Z,57.41
2019-02-02T15:37:32.248Z,57.64
2019-02-02T15:40:04.089Z,57.67
2019-02-02T15:42:35.720Z,57.45
2019-02-02T15:45:09.344Z,57.43
2019-02-02T15:47:40.909Z,57.66
2019-02-02T15:50:14.404Z,57.57
2019-02-02T15:52:46.751Z,57.57
2019-02-02T15:55:21.042Z,57.65
2019-02-02T15:57:52.909Z,57.83
2019-02-02T16:00:33.639Z,57.81
2019-02-02T16:03:05.491Z,57.95
2019-02-02T16:05:38.149Z,57.94
2019-02-02T16:08:18.835Z,57.91
2019-02-02T16:10:51.293Z,58.26
2019-02-02T16:13:24.045Z,58.06
2019-02-02T16:15:56.121Z,57.94
2019-02-02T16:18:28.640Z,57.79
2019-02-02T16:21:01.076Z,58.03
2019-02-02T16:23:33.342Z,58.09
2019-02-02T16:26:05.825Z,57.93
2019-02-02T16:28:38.648Z,57.99
2019-02-02T16:31:10.406Z,58.02
2019-02-02T16:33:42.726Z,58.02
2019-02-02T16:36:15.252Z,57.91
2019-02-02T16:38:47.961Z,58.03
2019-02-02T16:41:20.372Z,57.96
2019-02-02T16:43:52.750Z,58.15
2019-02-02T16:46:25.423Z,57.96
2019-02-02T16:48:57.103Z,58.04
2019-02-02T16:51:29.059Z,57.94
2019-02-02T16:54:01.011Z,58.12
2019-02-02T16:56:32.765Z,57.84
2019-02-02T16:59:05.012Z,57.85
2019-02-02T17:01:36.886Z,58.01
2019-02-02T17:04:16.041Z,58.18
2019-02-02T17:06:42.161Z,58.16
2019-02-02T17:09:14.327Z,58.01
2019-02-02T17:11:46.303Z,58.21
2019-02-02T17:14:18.100Z,58.18
2019-02-02T17:16:49.817Z,58.14
2019-02-02T17:19:21.506Z,58.19
2019-02-02T17:21:53.322Z,58.08
2019-02-02T17:24:25.533Z,58.09
2019-02-02T17:26:57.192Z,58.48
2019-02-02T17:29:29.314Z,58.60
2019-02-02T17:32:01.048Z,58.57
2019-02-02T17:34:33.454Z,58.54
2019-02-02T17:37:05.238Z,58.51
2019-02-02T17:39:36.939Z,58.51
2019-02-02T17:42:08.658Z,58.83
2019-02-02T17:44:40.642Z,58.72
2019-02-02T17:47:12.530Z,59.02
2019-02-02T17:49:44.277Z,58.94
2019-02-02T17:52:15.882Z,58.86
2019-02-02T17:54:48.031Z,58.91
2019-02-02T17:57:19.808Z,59.14
2019-02-02T17:59:52.988Z,58.96
2019-02-02T18:02:25.199Z,58.81
2019-02-02T18:04:57.187Z,58.71
2019-02-02T18:07:29.428Z,58.94
2019-02-02T18:10:01.394Z,58.83
2019-02-02T18:12:33.183Z,58.87
2019-02-02T18:15:05.733Z,58.75
2019-02-02T18:17:37.659Z,58.96
2019-02-02T18:20:12.131Z,58.83
2019-02-02T18:22:44.007Z,59.04
2019-02-02T18:25:16.234Z,58.78
2019-02-02T18:27:48.055Z,59.02
2019-02-02T18:30:21.204Z,58.99
2019-02-02T18:32:52.921Z,58.97
2019-02-02T18:35:24.612Z,58.98
2019-02-02T18:37:56.573Z,59.04
2019-02-02T18:40:28.300Z,59.09
2019-02-02T18:42:59.866Z,59.02
2019-02-02T18:45:31.820Z,59.10
2019-02-02T18:48:03.349Z,59.31
2019-02-02T18:50:34.839Z,59.18
2019-02-02T18:53:06.431Z,59.05
2019-02-02T18:55:42.702Z,59.05
2019-02-02T18:58:14.334Z,59.28
2019-02-02T19:00:46.101Z,59.15
2019-02-02T19:03:17.719Z,59.11
2019-02-02T19:05:49.559Z,59.21
2019-02-02T19:08:21.210Z,59.25
2019-02-02T19:10:52.801Z,59.47
2019-02-02T19:13:24.347Z,59.32
2019-02-02T19:15:56.317Z,59.37
2019-02-02T19:18:27.971Z,59.38
2019-02-02T19:20:59.593Z,59.42
2019-02-02T19:23:31.321Z,59.36
2019-02-02T19:26:02.955Z,59.43
2019-02-02T19:28:39.902Z,59.42
2019-02-02T19:31:08.334Z,59.42
2019-02-02T19:33:40.008Z,59.52
2019-02-02T19:36:12.499Z,59.49
2019-02-02T19:38:44.274Z,59.54
2019-02-02T19:41:16.020Z,59.51
2019-02-02T19:43:47.691Z,59.66
2019-02-02T19:46:19.541Z,59.56
2019-02-02T19:48:51.146Z,59.54
2019-02-02T19:51:22.800Z,59.53
2019-02-02T19:53:54.392Z,59.58
2019-02-02T19:56:26.337Z,59.59
2019-02-02T19:58:59.110Z,59.66
2019-02-02T20:01:31.002Z,59.65
2019-02-02T20:04:02.560Z,59.69
2019-02-02T20:06:34.098Z,59.69
2019-02-02T20:09:08.794Z,59.70
2019-02-02T20:11:41.135Z,59.71
2019-02-02T20:14:12.654Z,59.72
2019-02-02T20:16:45.955Z,59.75
2019-02-02T20:19:17.492Z,59.89
2019-02-02T20:21:52.206Z,59.93
2019-02-02T20:24:25.403Z,59.92
2019-02-02T20:26:56.972Z,59.86
2019-02-02T20:29:28.508Z,59.89
2019-02-02T20:32:02.130Z,60.05
2019-02-02T20:34:33.629Z,60.64
2019-02-02T20:37:05.289Z,60.46
2019-02-02T20:39:36.845Z,60.38
2019-02-02T20:42:08.505Z,60.32
2019-02-02T20:44:40.002Z,60.45
2019-02-02T20:47:11.808Z,60.43
2019-02-02T20:49:44.512Z,60.41
2019-02-02T20:52:16.719Z,60.37
2019-02-02T20:54:48.196Z,60.26
2019-02-02T20:57:20.027Z,60.29
2019-02-02T20:59:51.603Z,60.42
2019-02-02T21:02:23.862Z,60.43
2019-02-02T21:04:56.664Z,60.36
2019-02-02T21:07:28.197Z,60.41
2019-02-02T21:09:59.726Z,60.39
2019-02-02T21:12:31.336Z,60.49
2019-02-02T21:15:03.064Z,60.42
2019-02-02T21:17:35.148Z,60.47
2019-02-02T21:20:18.627Z,60.53
2019-02-02T21:22:50.204Z,60.48
2019-02-02T21:25:21.818Z,60.53
2019-02-02T21:27:53.386Z,60.59
2019-02-02T21:30:33.957Z,60.56
2019-02-02T21:33:06.344Z,60.56
2019-02-02T21:35:37.935Z,60.68
2019-02-02T21:38:09.516Z,60.80
2019-02-02T21:40:41.304Z,60.99
2019-02-02T21:43:16.032Z,60.88
2019-02-02T21:45:47.591Z,60.83
2019-02-02T21:48:19.364Z,60.80
2019-02-02T21:50:51.113Z,60.77
2019-02-02T21:53:22.586Z,60.97
2019-02-02T21:55:54.609Z,61.06
2019-02-02T21:58:26.316Z,61.13
2019-02-02T22:00:57.793Z,61.13
2019-02-02T22:03:29.281Z,61.20
2019-02-02T22:06:00.786Z,61.26
2019-02-02T22:08:32.301Z,61.18
2019-02-02T22:11:03.819Z,61.16
2019-02-02T22:13:35.416Z,61.18
2019-02-02T22:16:06.889Z,61.29
2019-02-02T22:18:39.062Z,61.36
2019-02-02T22:21:12.014Z,61.42
2019-02-02T22:23:43.491Z,61.33
2019-02-02T22:26:15.015Z,61.37
2019-02-02T22:28:46.561Z,61.50
2019-02-02T22:31:18.295Z,61.58
2019-02-02T22:33:50.032Z,61.59
2019-02-02T22:36:27.407Z,61.53
2019-02-02T22:38:54.718Z,61.39
2019-02-02T22:41:26.547Z,61.41
2019-02-02T22:43:58.072Z,61.40
2019-02-02T22:46:29.540Z,61.39
2019-02-02T22:49:01.376Z,61.29
2019-02-02T22:51:32.958Z,61.20
2019-02-02T22:54:04.475Z,61.07
2019-02-02T22:56:36.224Z,61.14
2019-02-02T22:59:08.064Z,61.27
2019-02-02T23:01:48.279Z,61.17
2019-02-02T23:05:18.338Z,61.17
2019-02-02T23:08:25.739Z,61.15
2019-02-02T23:11:32.106Z,61.13
2019-02-02T23:14:47.284Z,61.20
2019-02-02T23:17:20.122Z,61.13
2019-02-02T23:19:51.921Z,61.12
2019-02-02T23:22:23.390Z,61.08
2019-02-02T23:24:54.888Z,60.99
2019-02-02T23:27:26.347Z,61.43
2019-02-02T23:29:57.827Z,61.56
2019-02-02T23:32:31.223Z,61.74
2019-02-02T23:35:03.022Z,61.70
2019-02-02T23:37:34.486Z,61.62
2019-02-02T23:40:06.864Z,61.54
2019-02-02T23:42:38.329Z,61.44
2019-02-02T23:45:10.047Z,61.37
2019-02-02T23:47:41.530Z,61.38
2019-02-02T23:50:13.319Z,61.39
2019-02-02T23:52:44.775Z,61.28
2019-02-02T23:55:16.259Z,61.28
2019-02-02T23:57:47.919Z,61.27
